createdAt,value
2022-11-12T00:00:37.408Z,6.87
2022-11-12T00:05:37.359Z,6.79
2022-11-12T00:10:37.252Z,6.84
2022-11-12T00:15:37.259Z,6.81
2022-11-12T00:20:37.123Z,6.80
2022-11-12T00:25:37.067Z,6.68
2022-11-12T00:30:37.037Z,6.58
2022-11-12T00:35:36.913Z,6.58
2022-11-12T00:40:36.862Z,6.54
2022-11-12T00:45:36.807Z,6.48
2022-11-12T00:50:36.725Z,6.48
2022-11-12T00:55:36.661Z,6.44
2022-11-12T01:00:36.694Z,6.40
2022-11-12T01:05:36.557Z,6.43
2022-11-12T01:10:36.498Z,6.46
2022-11-12T01:15:36.414Z,6.47
2022-11-12T01:20:36.350Z,6.43
2022-11-12T01:25:36.295Z,6.36
2022-11-12T01:30:36.184Z,6.35
2022-11-12T01:35:36.140Z,6.25
2022-11-12T01:40:36.096Z,6.35
2022-11-12T01:45:36.036Z,6.35
2022-11-12T01:50:35.953Z,6.33
2022-11-12T01:55:35.895Z,6.32
2022-11-12T02:00:35.817Z,6.32
2022-11-12T02:05:35.854Z,6.25
2022-11-12T02:10:35.714Z,6.14
2022-11-12T02:15:35.610Z,6.28
2022-11-12T02:20:35.565Z,6.33
2022-11-12T02:25:35.492Z,6.29
2022-11-12T02:30:35.430Z,6.32
2022-11-12T02:35:35.363Z,6.28
2022-11-12T02:40:35.306Z,6.21
2022-11-12T02:45:35.320Z,6.19
2022-11-12T02:50:35.215Z,6.19
2022-11-12T02:55:35.101Z,6.16
2022-11-12T03:00:35.089Z,6.10
2022-11-12T03:05:34.978Z,6.03
2022-11-12T03:10:34.955Z,5.98
2022-11-12T03:15:34.848Z,6.00
2022-11-12T03:20:34.799Z,6.04
2022-11-12T03:25:34.709Z,6.03
2022-11-12T03:30:34.648Z,5.92
2022-11-12T03:35:34.596Z,5.92
2022-11-12T03:40:34.551Z,5.85
2022-11-12T03:45:34.454Z,5.77
2022-11-12T03:50:34.430Z,5.63
2022-11-12T03:55:34.346Z,5.56
2022-11-12T04:00:34.287Z,5.46
2022-11-12T04:05:34.241Z,5.35
2022-11-12T04:10:34.116Z,5.28
2022-11-12T04:15:34.087Z,5.34
2022-11-12T04:20:33.967Z,5.25
2022-11-12T04:25:33.943Z,5.16
2022-11-12T04:30:33.877Z,5.12
2022-11-12T04:35:33.823Z,5.12
2022-11-12T04:40:33.769Z,5.05
2022-11-12T04:45:33.668Z,4.98
2022-11-12T04:50:33.582Z,4.89
2022-11-12T04:55:33.528Z,4.88
2022-11-12T05:00:33.515Z,4.77
2022-11-12T05:05:34.254Z,4.69
2022-11-12T05:10:33.352Z,4.61
2022-11-12T05:15:33.283Z,4.57
2022-11-12T05:20:33.215Z,4.55
2022-11-12T05:25:33.138Z,4.52
2022-11-12T05:30:33.080Z,4.65
2022-11-12T05:35:33.037Z,4.69
2022-11-12T05:40:32.949Z,4.65
2022-11-12T05:45:32.933Z,4.64
2022-11-12T05:50:39.873Z,4.64
2022-11-12T05:55:37.012Z,4.79
2022-11-12T06:00:32.710Z,4.94
2022-11-12T06:05:32.629Z,5.07
2022-11-12T06:10:32.567Z,5.17
2022-11-12T06:15:37.983Z,5.17
2022-11-12T06:20:33.432Z,5.14
2022-11-12T06:25:32.344Z,5.14
2022-11-12T06:30:32.333Z,5.16
2022-11-12T06:35:32.222Z,5.28
2022-11-12T06:40:32.186Z,5.35
2022-11-12T06:45:32.096Z,5.45
2022-11-12T06:50:32.043Z,5.52
2022-11-12T06:55:31.995Z,5.59
2022-11-12T07:00:31.929Z,5.66
2022-11-12T07:05:31.849Z,5.67
2022-11-12T07:10:31.807Z,5.78
2022-11-12T07:15:31.760Z,5.83
2022-11-12T07:20:31.721Z,5.83
2022-11-12T07:25:31.577Z,5.89
2022-11-12T07:30:31.534Z,5.95
2022-11-12T07:35:31.491Z,6.13
2022-11-12T07:40:31.381Z,6.35
2022-11-12T07:45:31.370Z,6.50
2022-11-12T07:50:31.254Z,6.63
2022-11-12T07:55:31.197Z,6.73
2022-11-12T08:00:31.159Z,6.77
2022-11-12T08:05:31.101Z,6.81
2022-11-12T08:10:31.064Z,6.84
2022-11-12T08:15:30.964Z,6.98
2022-11-12T08:20:30.960Z,6.98
2022-11-12T08:25:30.788Z,6.89
2022-11-12T08:30:30.783Z,6.94
2022-11-12T08:35:30.735Z,6.99
2022-11-12T08:40:30.663Z,7.50
2022-11-12T08:45:30.606Z,7.84
2022-11-12T08:50:30.577Z,8.36
2022-11-12T08:55:30.491Z,8.86
2022-11-12T09:00:30.418Z,9.15
2022-11-12T09:05:30.361Z,9.23
2022-11-12T09:10:30.311Z,9.49
2022-11-12T09:15:37.479Z,9.63
2022-11-12T09:20:31.351Z,9.73
2022-11-12T09:25:30.055Z,10.01
2022-11-12T09:30:30.019Z,10.14
2022-11-12T09:35:29.871Z,10.33
2022-11-12T09:40:29.843Z,10.40
2022-11-12T09:45:29.838Z,10.46
2022-11-12T09:50:29.705Z,10.59
2022-11-12T09:55:29.685Z,10.78
2022-11-12T10:00:29.683Z,10.83
2022-11-12T10:05:29.669Z,10.58
2022-11-12T10:10:29.447Z,10.73
2022-11-12T10:15:29.359Z,10.60
2022-11-12T10:20:30.237Z,10.78
2022-11-12T10:25:29.234Z,11.02
2022-11-12T10:30:29.187Z,11.13
2022-11-12T10:35:29.083Z,11.35
2022-11-12T10:40:29.049Z,11.46
2022-11-12T10:45:28.967Z,11.39
2022-11-12T10:50:28.897Z,11.54
2022-11-12T10:55:28.804Z,11.87
2022-11-12T11:00:28.741Z,11.96
2022-11-12T11:05:28.675Z,12.01
2022-11-12T11:10:28.637Z,12.06
2022-11-12T11:15:28.602Z,12.16
2022-11-12T11:20:28.481Z,12.30
2022-11-12T11:25:28.465Z,12.42
2022-11-12T11:30:28.373Z,12.52
2022-11-12T11:35:28.283Z,12.66
2022-11-12T11:40:28.291Z,12.89
2022-11-12T11:45:28.175Z,12.99
2022-11-12T11:50:28.154Z,13.06
2022-11-12T11:55:28.036Z,13.18
2022-11-12T12:00:27.955Z,13.29
2022-11-12T12:05:27.882Z,13.36
2022-11-12T12:10:53.280Z,13.47
2022-11-12T12:15:28.745Z,13.55
2022-11-12T12:20:27.771Z,14.68
2022-11-12T12:25:27.632Z,18.61
2022-11-12T12:30:27.574Z,19.84
2022-11-12T12:35:27.535Z,20.53
2022-11-12T12:40:27.542Z,21.14
2022-11-12T12:45:29.617Z,20.53
2022-11-12T12:50:28.384Z,20.83
2022-11-12T12:55:27.240Z,20.35
2022-11-12T13:00:27.273Z,20.98
2022-11-12T13:05:27.126Z,20.95
2022-11-12T13:10:27.029Z,20.12
2022-11-12T13:15:26.974Z,19.51
2022-11-12T13:20:26.897Z,19.93
2022-11-12T13:25:26.830Z,18.49
2022-11-12T13:30:26.787Z,17.89
2022-11-12T13:35:26.711Z,18.90
2022-11-12T13:40:26.644Z,20.02
2022-11-12T13:45:26.574Z,20.91
2022-11-12T13:50:26.513Z,21.17
2022-11-12T13:55:26.430Z,18.95
2022-11-12T14:00:26.370Z,17.14
2022-11-12T14:05:26.316Z,15.97
2022-11-12T14:10:26.243Z,15.06
2022-11-12T14:15:26.185Z,14.44
2022-11-12T14:20:26.115Z,13.99
2022-11-12T14:25:26.037Z,13.55
2022-11-12T14:30:26.002Z,13.29
2022-11-12T14:35:25.998Z,13.11
2022-11-12T14:40:25.842Z,12.87
2022-11-12T14:45:25.793Z,12.44
2022-11-12T14:50:25.785Z,12.45
2022-11-12T14:55:25.652Z,12.30
2022-11-12T15:00:25.632Z,12.09
2022-11-12T15:05:25.549Z,11.93
2022-11-12T15:10:25.436Z,11.67
2022-11-12T15:15:25.404Z,11.54
2022-11-12T15:20:25.337Z,11.35
2022-11-12T15:25:25.292Z,11.02
2022-11-12T15:30:25.199Z,10.76
2022-11-12T15:35:25.158Z,10.52
2022-11-12T15:40:25.070Z,10.34
2022-11-12T15:45:25.339Z,10.07
2022-11-12T15:50:24.944Z,9.89
2022-11-12T15:55:24.876Z,9.70
2022-11-12T16:00:24.909Z,9.39
2022-11-12T16:05:24.745Z,9.27
2022-11-12T16:10:24.684Z,9.16
2022-11-12T16:15:24.634Z,8.88
2022-11-12T16:20:24.560Z,8.75
2022-11-12T16:25:24.467Z,8.60
2022-11-12T16:30:24.422Z,8.47
2022-11-12T16:35:24.580Z,8.30
2022-11-12T16:40:24.299Z,8.14
2022-11-12T16:45:24.194Z,8.03
2022-11-12T16:50:24.185Z,7.93
2022-11-12T16:55:24.085Z,7.90
2022-11-12T17:00:24.058Z,7.75
2022-11-12T17:05:23.957Z,7.60
2022-11-12T17:10:23.906Z,7.60
2022-11-12T17:15:23.835Z,7.58
2022-11-12T17:20:23.810Z,7.60
2022-11-12T17:25:23.689Z,7.38
2022-11-12T17:30:23.648Z,7.23
2022-11-12T17:35:23.617Z,7.24
2022-11-12T17:40:23.490Z,7.13
2022-11-12T17:45:23.431Z,7.04
2022-11-12T17:50:23.364Z,6.99
2022-11-12T17:55:23.322Z,6.87
2022-11-12T18:00:23.538Z,6.89
2022-11-12T18:05:23.159Z,6.97
2022-11-12T18:10:23.382Z,6.94
2022-11-12T18:15:23.067Z,6.71
2022-11-12T18:20:23.240Z,6.79
2022-11-12T18:25:22.909Z,6.66
2022-11-12T18:30:22.863Z,6.56
2022-11-12T18:35:28.570Z,6.44
2022-11-12T18:40:23.716Z,6.40
2022-11-12T18:45:22.642Z,6.29
2022-11-12T18:50:22.651Z,6.32
2022-11-12T18:55:22.529Z,6.21
2022-11-12T19:00:22.570Z,6.16
2022-11-12T19:05:22.449Z,5.96
2022-11-12T19:10:22.364Z,5.86
2022-11-12T19:15:26.559Z,5.96
2022-11-12T19:20:22.250Z,5.96
2022-11-12T19:25:23.111Z,5.91
2022-11-12T19:30:22.102Z,5.75
2022-11-12T19:35:22.040Z,5.70
2022-11-12T19:40:21.999Z,5.63
2022-11-12T19:45:22.042Z,5.68
2022-11-12T19:50:24.688Z,5.48
2022-11-12T19:55:21.752Z,5.38
2022-11-12T20:00:21.667Z,5.31
2022-11-12T20:05:22.367Z,5.35
2022-11-12T20:10:21.779Z,5.17
2022-11-12T20:15:21.464Z,5.16
2022-11-12T20:20:21.400Z,5.09
2022-11-12T20:25:21.364Z,5.23
2022-11-12T20:30:21.293Z,5.19
2022-11-12T20:35:22.479Z,5.20
2022-11-12T20:40:21.153Z,5.02
2022-11-12T20:45:21.072Z,4.80
2022-11-12T20:50:21.187Z,4.73
2022-11-12T20:55:22.007Z,4.77
2022-11-12T21:00:24.096Z,4.70
2022-11-12T21:05:20.809Z,4.69
2022-11-12T21:10:20.785Z,4.59
2022-11-12T21:15:20.702Z,4.54
2022-11-12T21:20:20.699Z,4.51
2022-11-12T21:25:20.539Z,4.44
2022-11-12T21:30:20.549Z,4.34
2022-11-12T21:35:20.506Z,4.44
2022-11-12T21:40:20.384Z,4.29
2022-11-12T21:45:20.313Z,4.14
2022-11-12T21:50:20.308Z,4.10
2022-11-12T21:55:20.186Z,4.10
2022-11-12T22:00:40.908Z,4.10
2022-11-12T22:05:21.075Z,4.18
2022-11-12T22:10:20.044Z,4.22
2022-11-12T22:15:24.183Z,4.39
2022-11-12T22:20:19.870Z,4.58
2022-11-12T22:25:19.819Z,4.76
2022-11-12T22:30:19.718Z,4.88
2022-11-12T22:35:19.653Z,4.83
2022-11-12T22:40:19.641Z,4.88
2022-11-12T22:45:19.594Z,4.95
2022-11-12T22:50:19.459Z,4.95
2022-11-12T22:55:19.424Z,4.84
2022-11-12T23:00:19.337Z,4.79
2022-11-12T23:05:19.319Z,4.94
2022-11-12T23:10:19.502Z,5.10
2022-11-12T23:15:19.177Z,5.13
2022-11-12T23:20:19.128Z,5.19
2022-11-12T23:25:19.032Z,5.17
2022-11-12T23:30:18.961Z,5.19
2022-11-12T23:35:18.917Z,5.20
2022-11-12T23:40:18.875Z,5.28
2022-11-12T23:45:19.557Z,5.31
2022-11-12T23:50:19.369Z,5.28
2022-11-12T23:55:18.678Z,5.25
